createdAt,value
2019-04-26T00:00:22.511Z,41.5
2019-04-26T00:01:03.092Z,42.08
2019-04-26T00:01:43.653Z,41.79
2019-04-26T00:02:24.237Z,42.27
2019-04-26T00:03:04.893Z,41.89
2019-04-26T00:03:45.465Z,42.18
2019-04-26T00:04:26.031Z,42.16
2019-04-26T00:05:06.606Z,42.06
2019-04-26T00:05:47.194Z,42.37
2019-04-26T00:06:27.754Z,42.25
2019-04-26T00:07:08.375Z,42.37
2019-04-26T00:07:48.879Z,42.25
2019-04-26T00:08:29.450Z,42.44
2019-04-26T00:09:10.796Z,42.47
2019-04-26T00:09:50.631Z,42.54
2019-04-26T00:10:31.172Z,42.44
2019-04-26T00:11:11.900Z,42.54
2019-04-26T00:11:52.312Z,42.54
2019-04-26T00:12:32.856Z,42.66
2019-04-26T00:13:14.261Z,42.73
2019-04-26T00:13:54.033Z,42.73
2019-04-26T00:14:34.602Z,42.83
2019-04-26T00:15:15.200Z,42.66
2019-04-26T00:15:55.788Z,42.94
2019-04-26T00:16:36.390Z,42.85
2019-04-26T00:17:17.569Z,42.83
2019-04-26T00:17:57.504Z,42.64
2019-04-26T00:18:39.468Z,42.54
2019-04-26T00:19:18.631Z,42.83
2019-04-26T00:19:59.188Z,42.64
2019-04-26T00:20:39.745Z,43.4
2019-04-26T00:21:20.369Z,43.02
2019-04-26T00:22:00.951Z,43.02
2019-04-26T00:22:41.514Z,43.5
2019-04-26T00:23:22.520Z,43.31
2019-04-26T00:24:02.696Z,43.21
2019-04-26T00:24:43.271Z,43.4
2019-04-26T00:25:30.468Z,43.31
2019-04-26T00:26:12.093Z,43.12
2019-04-26T00:26:51.636Z,43.21
2019-04-26T00:27:32.196Z,43.31
2019-04-26T00:28:12.881Z,43.31
2019-04-26T00:28:53.357Z,43.4
2019-04-26T00:29:33.917Z,43.6
2019-04-26T00:30:14.834Z,43.79
2019-04-26T00:30:55.087Z,43.79
2019-04-26T00:31:35.682Z,43.79
2019-04-26T00:32:17.189Z,44.17
2019-04-26T00:32:56.847Z,43.88
2019-04-26T00:33:37.760Z,43.98
2019-04-26T00:34:18.323Z,44.08
2019-04-26T00:34:58.949Z,43.98
2019-04-26T00:35:47.153Z,43.98
2019-04-26T00:36:20.803Z,44.17
2019-04-26T00:37:00.690Z,44.08
2019-04-26T00:37:41.288Z,43.88
2019-04-26T00:38:22.376Z,43.88
2019-04-26T00:39:02.451Z,44.08
2019-04-26T00:39:43.031Z,44.17
2019-04-26T00:40:23.638Z,44.27
2019-04-26T00:41:04.184Z,44.37
2019-04-26T00:41:44.754Z,44.65
2019-04-26T00:42:25.328Z,44.56
2019-04-26T00:43:05.891Z,44.56
2019-04-26T00:43:46.468Z,44.84
2019-04-26T00:44:27.043Z,44.75
2019-04-26T00:45:07.609Z,44.65
2019-04-26T00:45:48.184Z,44.94
2019-04-26T00:46:28.739Z,44.94
2019-04-26T00:47:09.331Z,45.14
2019-04-26T00:47:49.903Z,44.94
2019-04-26T00:48:30.493Z,45.04
2019-04-26T00:49:11.085Z,45.04
2019-04-26T00:49:51.665Z,44.94
2019-04-26T00:50:32.218Z,45.23
2019-04-26T00:51:13.816Z,45.23
2019-04-26T00:51:53.328Z,45.23
2019-04-26T00:52:33.911Z,44.75
2019-04-26T00:53:14.981Z,45.42
2019-04-26T00:53:55.028Z,45.61
2019-04-26T00:54:35.619Z,45.61
2019-04-26T00:55:16.174Z,45.52
2019-04-26T00:55:56.726Z,45.42
2019-04-26T00:56:37.295Z,45.52
2019-04-26T00:57:18.215Z,45.61
2019-04-26T00:57:58.399Z,45.23
2019-04-26T00:58:38.971Z,45.42
2019-04-26T00:59:20.419Z,45.9
2019-04-26T01:00:00.110Z,45.68
2019-04-26T01:00:40.675Z,45.81
2019-04-26T01:01:21.228Z,45.42
2019-04-26T01:02:01.783Z,45.71
2019-04-26T01:02:42.349Z,45.71
2019-04-26T01:03:22.909Z,45.9
2019-04-26T01:04:03.455Z,46
2019-04-26T01:04:44.026Z,46
2019-04-26T01:05:25.242Z,46.58
2019-04-26T01:06:05.138Z,46.19
2019-04-26T01:06:45.706Z,46.48
2019-04-26T01:07:26.287Z,46.48
2019-04-26T01:08:06.846Z,46.58
2019-04-26T01:11:05.688Z,46.28
2019-04-26T01:11:46.253Z,46.38
2019-04-26T01:12:26.859Z,46.58
2019-04-26T01:13:07.415Z,46.58
2019-04-26T01:13:47.944Z,46.67
2019-04-26T01:14:28.516Z,46.96
2019-04-26T01:15:09.081Z,46.86
2019-04-26T01:15:49.653Z,46.86
2019-04-26T01:16:30.213Z,46.77
2019-04-26T01:17:10.777Z,46.84
2019-04-26T01:17:51.335Z,46.86
2019-04-26T01:18:31.896Z,46.67
2019-04-26T01:19:12.449Z,46.96
2019-04-26T01:19:53.006Z,46.74
2019-04-26T01:20:33.564Z,46.94
2019-04-26T01:21:14.118Z,47.05
2019-04-26T01:21:54.675Z,47.03
2019-04-26T01:22:35.237Z,46.94
2019-04-26T01:23:17.365Z,47.13
2019-04-26T01:23:56.346Z,47.03
2019-04-26T01:24:36.911Z,47.03
2019-04-26T01:27:50.844Z,46.96
2019-04-26T01:28:31.393Z,47.13
2019-04-26T01:29:11.961Z,47.15
2019-04-26T01:29:52.520Z,47.8
2019-04-26T01:30:33.082Z,47.89
2019-04-26T01:31:13.690Z,47.71
2019-04-26T01:31:54.252Z,47.71
2019-04-26T01:32:34.828Z,47.53
2019-04-26T01:33:15.955Z,47.61
2019-04-26T01:33:56.512Z,47.8
2019-04-26T01:34:37.078Z,47.61
2019-04-26T01:35:17.834Z,47.61
2019-04-26T01:35:58.195Z,47.61
2019-04-26T01:36:38.757Z,47.32
2019-04-26T01:37:20.514Z,47.8
2019-04-26T01:37:59.882Z,47.8
2019-04-26T01:38:40.460Z,47.61
2019-04-26T01:39:22.338Z,47.99
2019-04-26T01:40:01.590Z,48.09
2019-04-26T01:40:42.138Z,47.99
2019-04-26T01:41:22.717Z,48.18
2019-04-26T01:42:03.359Z,48.18
2019-04-26T01:42:43.931Z,48.28
2019-04-26T01:43:24.511Z,48.09
2019-04-26T01:44:05.061Z,48.47
2019-04-26T01:44:45.617Z,48.28
2019-04-26T01:45:26.206Z,48.38
2019-04-26T01:46:06.765Z,48.28
2019-04-26T01:46:47.327Z,48.28
2019-04-26T01:47:28.397Z,48.28
2019-04-26T01:48:08.437Z,48.38
2019-04-26T01:48:49.019Z,48.47
2019-04-26T01:49:29.586Z,48.47
2019-04-26T01:50:10.158Z,48.85
2019-04-26T01:50:50.740Z,48.66
2019-04-26T01:51:31.288Z,49.05
2019-04-26T01:52:11.849Z,49.05
2019-04-26T01:52:52.395Z,48.95
2019-04-26T01:53:33.078Z,49.15
2019-04-26T01:54:13.534Z,49.15
2019-04-26T01:54:54.087Z,48.85
2019-04-26T01:58:08.012Z,48.85
2019-04-26T01:58:48.561Z,49.05
2019-04-26T01:59:29.464Z,49.05
2019-04-26T02:00:09.686Z,49.33
2019-04-26T02:00:50.248Z,49.24
2019-04-26T02:01:31.602Z,49.24
2019-04-26T02:02:11.421Z,49.43
2019-04-26T02:02:51.974Z,49.33
2019-04-26T02:03:32.541Z,49.82
2019-04-26T02:04:13.154Z,49.82
2019-04-26T02:04:53.717Z,49.62
2019-04-26T02:05:34.279Z,49.52
2019-04-26T02:06:24.892Z,49.43
2019-04-26T02:06:55.435Z,49.43
2019-04-26T02:07:35.991Z,49.62
2019-04-26T02:08:16.565Z,49.43
2019-04-26T02:08:57.135Z,49.43
2019-04-26T02:09:37.703Z,49.33
2019-04-26T02:10:18.274Z,49.62
2019-04-26T02:10:58.833Z,49.62
2019-04-26T02:11:39.407Z,49.33
2019-04-26T02:12:19.962Z,49.82
2019-04-26T02:13:00.545Z,50.01
2019-04-26T02:13:41.108Z,49.91
2019-04-26T02:14:22.645Z,49.91
2019-04-26T02:15:02.219Z,49.91
2019-04-26T02:15:42.793Z,49.91
2019-04-26T02:16:23.767Z,50.1
2019-04-26T02:17:03.923Z,50.29
2019-04-26T02:17:44.483Z,50.2
2019-04-26T02:18:25.497Z,50.2
2019-04-26T02:19:05.666Z,50.2
2019-04-26T02:19:46.220Z,50.2
2019-04-26T02:20:27.513Z,50.2
2019-04-26T02:21:07.360Z,50.39
2019-04-26T02:21:47.913Z,50.2
2019-04-26T02:22:28.476Z,50.29
2019-04-26T02:23:09.039Z,50.49
2019-04-26T02:23:49.591Z,50.78
2019-04-26T02:24:30.197Z,50.58
2019-04-26T02:25:10.729Z,50.68
2019-04-26T02:25:51.283Z,50.56
2019-04-26T02:26:32.540Z,50.58
2019-04-26T02:27:12.386Z,50.56
2019-04-26T02:27:52.937Z,50.56
2019-04-26T02:28:34.542Z,50.75
2019-04-26T02:29:14.108Z,50.94
2019-04-26T02:29:54.671Z,51.14
2019-04-26T02:30:36.700Z,51.23
2019-04-26T02:31:15.896Z,51.51
2019-04-26T02:31:56.444Z,51.32
2019-04-26T02:32:37.214Z,51.32
2019-04-26T02:33:18.027Z,51.42
2019-04-26T02:33:58.590Z,51.42
2019-04-26T02:34:39.150Z,51.14
2019-04-26T02:35:19.739Z,51.32
2019-04-26T02:36:00.261Z,51.51
2019-04-26T02:36:55.770Z,51.61
2019-04-26T02:37:21.403Z,51.61
2019-04-26T02:38:01.934Z,51.42
2019-04-26T02:38:42.516Z,52.09
2019-04-26T02:39:23.079Z,51.81
2019-04-26T02:40:03.767Z,51.71
2019-04-26T02:40:44.242Z,52.38
2019-04-26T02:41:27.380Z,52.09
2019-04-26T02:42:05.385Z,52.19
2019-04-26T02:42:45.947Z,52.09
2019-04-26T02:43:28.531Z,52.28
2019-04-26T02:44:07.066Z,52.57
2019-04-26T02:44:47.632Z,52.48
2019-04-26T02:45:28.825Z,52.57
2019-04-26T02:46:08.760Z,52.28
2019-04-26T02:46:49.378Z,52.57
2019-04-26T02:47:30.876Z,52.76
2019-04-26T02:48:10.472Z,52.86
2019-04-26T02:48:51.017Z,52.95
2019-04-26T02:49:32.918Z,53.15
2019-04-26T02:50:12.151Z,53.15
2019-04-26T02:50:52.744Z,52.86
2019-04-26T02:51:34.538Z,52.95
2019-04-26T02:52:13.880Z,52.86
2019-04-26T02:52:54.445Z,53.05
2019-04-26T02:53:36.861Z,53.05
2019-04-26T02:54:15.578Z,53.34
2019-04-26T02:54:56.170Z,53.24
2019-04-26T02:55:40.103Z,53.44
2019-04-26T02:56:17.296Z,53.72
2019-04-26T02:56:57.860Z,53.63
2019-04-26T02:57:38.844Z,53.53
2019-04-26T02:58:19.001Z,53.82
2019-04-26T02:58:59.573Z,53.34
2019-04-26T02:59:40.876Z,53.44
2019-04-26T03:00:20.667Z,53.24
2019-04-26T03:01:01.234Z,53.44
2019-04-26T03:01:41.793Z,53.44
2019-04-26T03:02:22.355Z,53.63
2019-04-26T03:03:02.928Z,53.72
2019-04-26T03:03:43.488Z,53.63
2019-04-26T03:04:24.060Z,53.53
2019-04-26T03:05:04.642Z,53.63
2019-04-26T03:05:45.173Z,53.63
2019-04-26T03:06:25.737Z,53.53
2019-04-26T03:07:06.319Z,53.91
2019-04-26T03:07:46.872Z,54.21
2019-04-26T03:08:27.431Z,54.39
2019-04-26T03:09:08.033Z,54.21
2019-04-26T03:09:48.561Z,54.3
2019-04-26T03:10:31.692Z,54.21
2019-04-26T03:11:09.688Z,54.11
2019-04-26T03:11:50.249Z,54.78
2019-04-26T03:12:32.129Z,54.49
2019-04-26T03:13:11.370Z,54.49
2019-04-26T03:13:51.937Z,54.39
2019-04-26T03:14:32.945Z,54.39
2019-04-26T03:15:14.419Z,54.39
2019-04-26T03:15:53.629Z,54.58
2019-04-26T03:16:35.116Z,54.88
2019-04-26T03:17:14.753Z,54.88
2019-04-26T03:17:55.306Z,54.68
2019-04-26T03:18:37.305Z,54.88
2019-04-26T03:19:16.411Z,55.07
2019-04-26T03:19:56.981Z,54.97
2019-04-26T03:20:38.309Z,54.97
2019-04-26T03:21:18.102Z,55.35
2019-04-26T03:21:58.667Z,55.64
2019-04-26T03:22:40.681Z,55.35
2019-04-26T03:23:19.970Z,55.35
2019-04-26T03:24:00.361Z,55.07
2019-04-26T03:24:42.443Z,54.97
2019-04-26T03:25:21.489Z,55.35
2019-04-26T03:26:02.047Z,55.16
2019-04-26T03:26:43.302Z,55.16
2019-04-26T03:27:23.183Z,55.35
2019-04-26T03:28:03.733Z,55.16
2019-04-26T03:28:44.318Z,55.26
2019-04-26T03:29:24.875Z,55.74
2019-04-26T03:32:23.737Z,55.64
2019-04-26T03:33:04.455Z,55.64
2019-04-26T03:33:52.403Z,55.83
2019-04-26T03:34:25.935Z,55.83
2019-04-26T03:35:06.622Z,55.64
2019-04-26T03:35:56.266Z,56.02
2019-04-26T03:36:27.629Z,56.22
2019-04-26T03:37:19.962Z,56.12
2019-04-26T03:37:48.745Z,56.12
2019-04-26T03:38:29.304Z,56.22
2019-04-26T03:39:09.868Z,55.8
2019-04-26T03:39:50.437Z,55.9
2019-04-26T03:40:31.006Z,55.9
2019-04-26T03:41:11.560Z,55.9
2019-04-26T03:41:52.124Z,55.93
2019-04-26T03:42:33.125Z,56.7
2019-04-26T03:43:13.242Z,56.79
2019-04-26T03:43:53.804Z,56.41
2019-04-26T03:44:34.930Z,56.51
2019-04-26T03:45:14.922Z,56.6
2019-04-26T03:45:55.487Z,56.51
2019-04-26T03:46:37.518Z,56.51
2019-04-26T03:47:16.610Z,56.38
2019-04-26T03:47:57.200Z,56.86
2019-04-26T03:48:39.270Z,56.96
2019-04-26T03:49:18.340Z,56.96
2019-04-26T03:49:58.918Z,56.96
2019-04-26T03:50:40.913Z,57.15
2019-04-26T03:51:20.032Z,57.08
2019-04-26T03:52:00.648Z,57.06
2019-04-26T03:52:42.133Z,56.86
2019-04-26T03:53:21.788Z,57.24
2019-04-26T03:54:02.393Z,57.24
2019-04-26T03:54:43.009Z,57.24
2019-04-26T03:55:23.596Z,57.34
2019-04-26T03:56:04.163Z,57.43
2019-04-26T03:56:45.478Z,57.24
2019-04-26T03:57:25.272Z,57.24
2019-04-26T03:58:05.846Z,57.06
2019-04-26T03:58:46.411Z,57.43
2019-04-26T03:59:27.005Z,57.82
2019-04-26T04:00:07.577Z,57.43
2019-04-26T04:00:48.139Z,57.63
2019-04-26T04:01:28.709Z,57.53
2019-04-26T04:02:09.305Z,57.43
2019-04-26T04:02:49.888Z,58.11
2019-04-26T04:03:30.552Z,58.11
2019-04-26T04:04:11.130Z,57.92
2019-04-26T04:04:51.724Z,57.92
2019-04-26T04:05:32.292Z,58.01
2019-04-26T04:06:12.856Z,57.72
2019-04-26T04:07:03.531Z,58.2
2019-04-26T04:07:37.614Z,58.11
2019-04-26T04:08:14.587Z,58.3
2019-04-26T04:08:55.189Z,58.2
2019-04-26T04:09:35.838Z,58.39
2019-04-26T04:10:16.366Z,58.39
2019-04-26T04:10:57.043Z,58.49
2019-04-26T04:11:38.654Z,58.3
2019-04-26T04:12:18.245Z,58.39
2019-04-26T04:12:58.771Z,58.49
2019-04-26T04:13:42.654Z,58.39
2019-04-26T04:14:20.052Z,58.2
2019-04-26T04:15:00.547Z,58.87
2019-04-26T04:15:42.505Z,58.59
2019-04-26T04:16:21.647Z,58.59
2019-04-26T04:17:02.207Z,58.59
2019-04-26T04:17:45.099Z,58.87
2019-04-26T04:18:23.340Z,58.69
2019-04-26T04:19:03.896Z,58.78
2019-04-26T04:19:45.722Z,58.87
2019-04-26T04:20:25.062Z,59.06
2019-04-26T04:21:05.650Z,59.06
2019-04-26T04:21:47.050Z,58.97
2019-04-26T04:22:26.783Z,58.97
2019-04-26T04:23:07.330Z,58.97
2019-04-26T04:23:48.749Z,58.87
2019-04-26T04:24:28.544Z,59.16
2019-04-26T04:25:09.113Z,58.97
2019-04-26T04:25:49.671Z,58.87
2019-04-26T04:26:30.235Z,59.06
2019-04-26T04:27:10.819Z,59.16
2019-04-26T04:27:51.341Z,59.36
2019-04-26T04:28:31.902Z,59.45
2019-04-26T04:29:12.470Z,59.16
2019-04-26T04:29:55.451Z,59.26
2019-04-26T04:30:33.616Z,59.55
2019-04-26T04:31:14.180Z,59.16
2019-04-26T04:31:54.736Z,59.55
2019-04-26T04:32:35.298Z,59.64
2019-04-26T04:33:15.867Z,59.74
2019-04-26T04:33:56.417Z,59.93
2019-04-26T04:34:36.998Z,60.03
2019-04-26T04:35:17.563Z,59.74
2019-04-26T04:35:58.115Z,59.64
2019-04-26T04:36:41.433Z,59.55
2019-04-26T04:37:19.231Z,60.12
2019-04-26T04:38:08.298Z,59.93
2019-04-26T04:38:40.838Z,60.12
2019-04-26T04:39:20.927Z,60.12
2019-04-26T04:40:01.473Z,60.12
2019-04-26T04:40:42.651Z,60.41
2019-04-26T04:41:22.672Z,60.6
2019-04-26T04:42:03.159Z,60.22
2019-04-26T04:42:43.879Z,60.31
2019-04-26T04:43:24.487Z,60.5
2019-04-26T04:44:04.878Z,60.6
2019-04-26T04:44:45.955Z,60.5
2019-04-26T04:45:26.035Z,60.79
2019-04-26T04:46:06.669Z,60.31
2019-04-26T04:46:49.240Z,60.7
2019-04-26T04:47:30.991Z,60.99
2019-04-26T04:48:08.601Z,60.79
2019-04-26T04:48:50.637Z,60.79
2019-04-26T04:49:29.835Z,60.5
2019-04-26T04:50:10.617Z,60.79
2019-04-26T04:50:52.582Z,61.08
2019-04-26T04:51:31.968Z,61.08
2019-04-26T04:52:12.532Z,61.08
2019-04-26T04:52:53.095Z,61.27
2019-04-26T04:53:33.652Z,61.37
2019-04-26T04:54:14.205Z,61.08
2019-04-26T04:55:06.590Z,61.27
2019-04-26T04:55:35.357Z,61.27
2019-04-26T04:56:15.925Z,61.18
2019-04-26T04:56:56.484Z,60.99
2019-04-26T04:57:37.039Z,61.75
2019-04-26T04:58:17.646Z,61.27
2019-04-26T04:58:58.160Z,61.27
2019-04-26T04:59:38.711Z,61.46
2019-04-26T05:00:19.268Z,61.75
2019-04-26T05:00:59.834Z,61.27
2019-04-26T05:01:40.398Z,61.27
2019-04-26T05:02:20.963Z,61.37
2019-04-26T05:03:01.528Z,61.27
2019-04-26T05:03:42.321Z,61.75
2019-04-26T05:04:22.802Z,61.56
2019-04-26T05:05:03.359Z,61.94
2019-04-26T05:05:44.882Z,61.94
2019-04-26T05:06:24.481Z,61.85
2019-04-26T05:07:05.047Z,61.94
2019-04-26T05:07:45.616Z,61.85
2019-04-26T05:08:26.194Z,61.75
2019-04-26T05:09:06.755Z,61.94
2019-04-26T05:09:47.383Z,61.75
2019-04-26T05:10:27.869Z,61.66
2019-04-26T05:11:08.436Z,61.94
2019-04-26T05:11:49.683Z,62.13
2019-04-26T05:12:29.559Z,61.85
2019-04-26T05:13:10.146Z,61.94
2019-04-26T05:13:50.715Z,61.94
2019-04-26T05:14:31.289Z,61.85
2019-04-26T05:15:11.920Z,61.69
2019-04-26T05:15:52.785Z,61.94
2019-04-26T05:16:33.237Z,61.94
2019-04-26T05:17:13.606Z,61.69
2019-04-26T05:17:54.182Z,61.85
2019-04-26T05:18:34.738Z,61.78
2019-04-26T05:19:15.289Z,62.23
2019-04-26T05:19:55.868Z,61.98
2019-04-26T05:20:36.433Z,62.07
2019-04-26T05:21:16.994Z,62.42
2019-04-26T05:21:57.565Z,62.36
2019-04-26T05:22:38.147Z,62.26
2019-04-26T05:23:18.748Z,61.78
2019-04-26T05:23:59.317Z,61.98
2019-04-26T05:24:39.883Z,61.98
2019-04-26T05:25:20.452Z,61.69
2019-04-26T05:26:01.017Z,61.78
2019-04-26T05:26:41.654Z,61.78
2019-04-26T05:27:22.207Z,61.78
2019-04-26T05:28:02.761Z,61.69
2019-04-26T05:28:43.311Z,61.78
2019-04-26T05:29:23.879Z,61.98
2019-04-26T05:30:04.449Z,61.69
2019-04-26T05:30:46.470Z,61.98
2019-04-26T05:31:25.666Z,61.78
2019-04-26T05:32:07.186Z,61.78
2019-04-26T05:32:48.671Z,62.07
2019-04-26T05:33:28.796Z,61.98
2019-04-26T05:34:09.359Z,61.98
2019-04-26T05:34:50.704Z,61.88
2019-04-26T05:35:30.486Z,61.98
2019-04-26T05:36:11.052Z,61.78
2019-04-26T05:36:52.722Z,62.16
2019-04-26T05:37:32.330Z,62.16
2019-04-26T05:38:18.454Z,61.78
2019-04-26T05:38:53.439Z,61.78
2019-04-26T05:39:34.016Z,61.3
2019-04-26T05:40:14.571Z,61.78
2019-04-26T05:40:55.620Z,61.98
2019-04-26T05:41:35.700Z,61.88
2019-04-26T05:42:16.322Z,61.98
2019-04-26T05:42:57.976Z,61.78
2019-04-26T05:43:37.453Z,61.98
2019-04-26T05:44:18.057Z,61.78
2019-04-26T05:44:58.956Z,61.69
2019-04-26T05:45:40.586Z,61.59
2019-04-26T05:46:20.006Z,61.91
2019-04-26T05:47:01.053Z,61.72
2019-04-26T05:47:41.181Z,62.01
2019-04-26T05:48:21.826Z,61.91
2019-04-26T05:49:02.369Z,62.01
2019-04-26T05:49:42.949Z,61.91
2019-04-26T05:50:23.524Z,61.43
2019-04-26T05:51:04.197Z,61.43
2019-04-26T05:51:44.777Z,61.43
2019-04-26T05:52:25.377Z,61.43
2019-04-26T05:53:05.955Z,61.33
2019-04-26T05:53:46.507Z,61.81
2019-04-26T05:54:27.079Z,61.81
2019-04-26T05:55:07.694Z,61.33
2019-04-26T05:55:48.258Z,61.91
2019-04-26T05:56:28.844Z,61.62
2019-04-26T05:57:09.472Z,61.52
2019-04-26T05:57:51.138Z,61.33
2019-04-26T05:58:30.649Z,61.27
2019-04-26T05:59:11.205Z,61.43
2019-04-26T05:59:53.324Z,61.33
2019-04-26T06:00:32.435Z,61.24
2019-04-26T06:01:13.027Z,61.24
2019-04-26T06:01:54.711Z,61.17
2019-04-26T06:02:34.262Z,61.17
2019-04-26T06:03:14.879Z,61.27
2019-04-26T06:03:56.263Z,60.6
2019-04-26T06:04:36.062Z,60.98
2019-04-26T06:05:16.668Z,60.69
2019-04-26T06:05:57.216Z,60.69
2019-04-26T06:06:37.770Z,60.69
2019-04-26T06:07:18.349Z,60.69
2019-04-26T06:07:58.925Z,60.21
2019-04-26T06:08:39.499Z,60.14
2019-04-26T06:09:20.250Z,59.86
2019-04-26T06:10:00.833Z,59.86
2019-04-26T06:10:41.403Z,60.05
2019-04-26T06:11:22.083Z,59.76
2019-04-26T06:12:02.616Z,59.66
2019-04-26T06:12:43.292Z,59.38
2019-04-26T06:13:23.877Z,59.57
2019-04-26T06:14:04.449Z,59.41
2019-04-26T06:14:45.024Z,59.12
2019-04-26T06:15:25.607Z,58.64
2019-04-26T06:16:06.170Z,58.54
2019-04-26T06:16:46.744Z,58.83
2019-04-26T06:17:27.327Z,58.06
2019-04-26T06:18:07.964Z,57.97
2019-04-26T06:18:48.560Z,58.06
2019-04-26T06:19:29.253Z,58.18
2019-04-26T06:20:21.861Z,57.8
2019-04-26T06:20:51.088Z,57.32
2019-04-26T06:21:31.158Z,57.13
2019-04-26T06:22:11.659Z,56.67
2019-04-26T06:22:55.213Z,56.67
2019-04-26T06:23:32.815Z,56.67
2019-04-26T06:24:13.423Z,56.2
2019-04-26T06:24:54.275Z,56
2019-04-26T06:25:34.607Z,55.45
2019-04-26T06:26:15.464Z,54.68
2019-04-26T06:27:09.018Z,54.97
2019-04-26T06:27:36.683Z,54.58
2019-04-26T06:28:17.233Z,54.68
2019-04-26T06:28:58.969Z,55
2019-04-26T06:29:38.388Z,54.13
2019-04-26T06:30:18.992Z,54.03
2019-04-26T06:30:59.634Z,53.55
2019-04-26T06:31:40.286Z,53.29
2019-04-26T06:32:20.908Z,52.91
2019-04-26T06:35:20.261Z,52.16
2019-04-26T06:36:00.346Z,51.48
2019-04-26T06:36:40.864Z,51.39
2019-04-26T06:37:21.428Z,51.32
2019-04-26T06:38:02.003Z,51.03
2019-04-26T06:38:43.839Z,50.45
2019-04-26T06:39:23.160Z,50.64
2019-04-26T06:40:04.445Z,50.54
2019-04-26T06:40:44.501Z,50.38
2019-04-26T06:41:25.065Z,50.28
2019-04-26T06:42:05.682Z,49.7
2019-04-26T06:42:46.219Z,49.7
2019-04-26T06:43:26.779Z,49.6
2019-04-26T06:44:07.365Z,49.32
2019-04-26T06:44:47.927Z,49.7
2019-04-26T06:45:28.493Z,49.22
2019-04-26T06:46:09.071Z,48.83
2019-04-26T06:46:49.676Z,48.37
2019-04-26T06:47:30.267Z,48.18
2019-04-26T06:48:10.840Z,48.47
2019-04-26T06:48:51.466Z,48.66
2019-04-26T06:49:32.031Z,48.18
2019-04-26T06:50:12.618Z,48.57
2019-04-26T06:50:53.250Z,48.57
2019-04-26T06:51:33.847Z,48.18
2019-04-26T06:52:14.434Z,47.89
2019-04-26T06:52:56.620Z,47.7
2019-04-26T06:53:35.598Z,48.01
2019-04-26T06:54:16.143Z,47.91
2019-04-26T06:54:57.674Z,47.91
2019-04-26T06:55:37.413Z,47.91
2019-04-26T06:56:17.954Z,47.72
2019-04-26T06:57:39.142Z,47.26
2019-04-26T06:58:19.720Z,47.55
2019-04-26T06:59:01.151Z,47.16
2019-04-26T06:59:40.878Z,47.28
2019-04-26T07:00:21.520Z,46.51
2019-04-26T07:01:03.199Z,46.12
2019-04-26T07:01:42.639Z,45.54
2019-04-26T07:02:23.219Z,45.35
2019-04-26T07:03:03.803Z,45.64
2019-04-26T07:03:44.378Z,45.25
2019-04-26T07:04:24.957Z,45.35
2019-04-26T07:05:05.510Z,45.83
2019-04-26T07:05:46.145Z,45.35
2019-04-26T07:06:34.720Z,44.96
2019-04-26T07:07:07.505Z,45.06
2019-04-26T07:07:47.907Z,45.16
2019-04-26T07:08:28.491Z,45.16
2019-04-26T07:09:09.094Z,45.35
2019-04-26T07:09:49.680Z,45.45
2019-04-26T07:10:30.289Z,46.12
2019-04-26T07:11:11.724Z,45.35
2019-04-26T07:11:51.483Z,45.33
2019-04-26T07:12:32.093Z,45.72
2019-04-26T07:13:14.761Z,45.91
2019-04-26T07:13:53.268Z,46.1
2019-04-26T07:14:33.841Z,45.98
2019-04-26T07:15:27.655Z,45.89
2019-04-26T07:15:55.021Z,45.98
2019-04-26T07:16:35.664Z,46.75
2019-04-26T07:17:16.279Z,46.75
2019-04-26T07:17:56.919Z,47.22
2019-04-26T07:18:37.506Z,47.33
2019-04-26T07:19:18.116Z,47.41
2019-04-26T07:20:00.816Z,47.31
2019-04-26T07:20:39.369Z,47.5
2019-04-26T07:21:20.040Z,47.8
2019-04-26T07:22:00.669Z,47.5
2019-04-26T07:22:41.274Z,47.8
2019-04-26T07:23:21.783Z,47.7
2019-04-26T07:24:03.671Z,47.7
2019-04-26T07:24:43.026Z,48.66
2019-04-26T07:25:23.625Z,48.44
2019-04-26T07:26:04.196Z,48.76
2019-04-26T07:26:44.785Z,49.32
2019-04-26T07:27:25.379Z,48.44
2019-04-26T07:28:08.024Z,48.54
2019-04-26T07:28:46.524Z,49.32
2019-04-26T07:29:27.112Z,48.54
2019-04-26T07:30:07.744Z,48.64
2019-04-26T07:30:48.231Z,48.74
2019-04-26T07:31:28.804Z,49.32
2019-04-26T07:32:09.542Z,49.32
2019-04-26T07:32:49.964Z,49.7
2019-04-26T07:33:30.545Z,49.82
2019-04-26T07:34:11.484Z,49.15
2019-04-26T07:34:51.685Z,48.3
2019-04-26T07:35:32.266Z,47.91
2019-04-26T07:36:12.823Z,47.63
2019-04-26T07:36:53.376Z,46.97
2019-04-26T07:37:33.934Z,46.88
2019-04-26T07:38:14.528Z,46.61
2019-04-26T07:38:55.070Z,46.9
2019-04-26T07:39:35.633Z,45.64
2019-04-26T07:40:16.192Z,45.08
2019-04-26T07:40:56.761Z,44.7
2019-04-26T07:41:37.374Z,45.08
2019-04-26T07:42:17.941Z,44.79
2019-04-26T07:42:58.507Z,44.21
2019-04-26T07:43:39.105Z,44.21
2019-04-26T07:44:19.704Z,44.4
2019-04-26T07:45:01.952Z,43.95
2019-04-26T07:45:40.870Z,44.04
2019-04-26T07:46:21.442Z,44.33
2019-04-26T07:47:03.048Z,44.04
2019-04-26T07:47:42.573Z,44.13
2019-04-26T07:48:23.160Z,43.46
2019-04-26T07:49:04.183Z,43.65
2019-04-26T07:49:44.332Z,43.85
2019-04-26T07:50:24.939Z,43.92
2019-04-26T07:51:06.474Z,44.21
2019-04-26T07:51:46.080Z,44.6
2019-04-26T07:52:26.646Z,44.4
2019-04-26T07:53:07.421Z,44.21
2019-04-26T07:53:47.858Z,44.4
2019-04-26T07:54:28.445Z,44.21
2019-04-26T07:55:09.025Z,44.31
2019-04-26T07:55:49.631Z,44.38
2019-04-26T07:56:30.191Z,45.16
2019-04-26T07:57:10.807Z,45.25
2019-04-26T07:57:51.414Z,45.45
2019-04-26T07:58:31.954Z,45.35
2019-04-26T07:59:12.846Z,45.54
2019-04-26T07:59:53.137Z,45.25
2019-04-26T08:00:44.313Z,45.35
2019-04-26T08:01:14.367Z,45.91
2019-04-26T08:01:55.011Z,46
2019-04-26T08:02:35.633Z,45.91
2019-04-26T08:03:16.183Z,46.1
2019-04-26T08:03:56.778Z,45.91
2019-04-26T08:04:37.345Z,45.69
2019-04-26T08:05:17.912Z,45.69
2019-04-26T08:05:58.501Z,45.79
2019-04-26T08:06:39.149Z,45.98
2019-04-26T08:07:19.691Z,45.89
2019-04-26T08:08:00.285Z,46.17
2019-04-26T08:08:40.872Z,46.85
2019-04-26T08:09:26.707Z,47.14
2019-04-26T08:10:02.029Z,47.14
2019-04-26T08:10:42.620Z,47.91
2019-04-26T08:11:23.235Z,47.89
2019-04-26T08:12:04.830Z,48.01
2019-04-26T08:12:44.401Z,48.21
2019-04-26T08:13:25.008Z,47.72
2019-04-26T08:14:06.194Z,47.91
2019-04-26T08:14:46.207Z,47.72
2019-04-26T08:15:26.807Z,48.59
2019-04-26T08:16:08.603Z,47.99
2019-04-26T08:16:48.019Z,48.01
2019-04-26T08:17:28.648Z,47.91
2019-04-26T08:18:09.250Z,48.08
2019-04-26T08:18:49.883Z,47.91
2019-04-26T08:19:30.458Z,47.63
2019-04-26T08:20:12.577Z,48.39
2019-04-26T08:20:51.760Z,48.3
2019-04-26T08:21:32.369Z,48.21
2019-04-26T08:22:20.134Z,48.39
2019-04-26T08:22:53.543Z,48.66
2019-04-26T08:23:42.067Z,48.66
2019-04-26T08:24:14.733Z,48.76
2019-04-26T08:24:55.351Z,48.66
2019-04-26T08:25:35.928Z,48.88
2019-04-26T08:26:16.520Z,49.27
2019-04-26T08:27:08.199Z,48.49
2019-04-26T08:27:37.653Z,48.49
2019-04-26T08:28:18.220Z,48.39
2019-04-26T08:29:00.510Z,48.39
2019-04-26T08:29:39.373Z,48.39
2019-04-26T08:30:22.655Z,48.49
2019-04-26T08:31:00.527Z,48.69
2019-04-26T08:31:41.110Z,48.59
2019-04-26T08:32:21.715Z,48.59
2019-04-26T08:33:06.347Z,48.39
2019-04-26T08:33:48.407Z,48.3
2019-04-26T08:34:28.501Z,48.39
2019-04-26T08:35:06.695Z,48.3
2019-04-26T08:35:48.621Z,48.37
2019-04-26T08:36:27.008Z,48.49
2019-04-26T08:37:06.655Z,49.46
2019-04-26T08:37:46.594Z,49.37
2019-04-26T08:38:27.243Z,48.69
2019-04-26T08:39:08.263Z,48.59
2019-04-26T08:39:51.847Z,48.37
2019-04-26T08:40:31.167Z,47.7
2019-04-26T08:41:09.893Z,47.99
2019-04-26T08:41:50.187Z,48.47
2019-04-26T08:42:30.740Z,48.37
2019-04-26T08:43:11.324Z,49.34
2019-04-26T08:43:51.896Z,49.05
2019-04-26T08:44:34.443Z,49.53
2019-04-26T08:45:14.130Z,49.53
2019-04-26T08:46:02.747Z,49.53
2019-04-26T08:46:36.133Z,49.82
2019-04-26T08:47:19.742Z,49.82
2019-04-26T08:47:55.465Z,49.73
2019-04-26T08:48:36.093Z,49.63
2019-04-26T08:49:17.570Z,50.11
2019-04-26T08:49:57.296Z,51.1
2019-04-26T08:50:37.879Z,51.27
2019-04-26T08:51:20.456Z,50.69
2019-04-26T08:51:59.068Z,50.62
2019-04-26T08:52:39.656Z,50.13
2019-04-26T08:53:20.285Z,49.46
2019-04-26T08:54:00.849Z,49.29
2019-04-26T08:54:41.435Z,48.61
2019-04-26T08:55:22.037Z,48.42
2019-04-26T08:56:02.618Z,48.13
2019-04-26T08:56:43.173Z,47.74
2019-04-26T08:57:23.716Z,48.13